Time;durP1;ratioP1;P1;durP2;ratioP2;P2;SDS_P1;SDS_P2;PMS_P1;PMS_P2;Temp;Humidity;BMP_temperature;BMP_pressure;BME280_temperature;BME280_humidity;BME280_pressure;Samples;Min_cycle;Max_cycle;Signal;HPM_P1;HPM_P2
2021/08/06 00:01:36;;;;;;;2.78;1.10;;;31.50;99.90;;;;;;5013296;28;20250;-92
2021/08/06 00:04:17;;;;;;;2.30;1.20;;;31.80;99.90;;;;;;5009089;28;20238;-91
2021/08/06 00:06:50;;;;;;;2.00;1.02;;;32.10;99.90;;;;;;5012956;28;20567;-91
2021/08/06 00:09:27;;;;;;;1.13;0.95;;;32.10;99.90;;;;;;5010300;28;20222;-91
2021/08/06 00:12:00;;;;;;;1.88;1.10;;;32.10;99.90;;;;;;5009239;28;20261;-91
2021/08/06 00:14:32;;;;;;;3.63;0.90;;;32.00;99.90;;;;;;5027698;28;20599;-91
2021/08/06 00:17:05;;;;;;;1.77;1.10;;;31.80;99.90;;;;;;5031486;28;20216;-92
2021/08/06 00:19:36;;;;;;;4.47;1.10;;;31.50;99.90;;;;;;5030531;28;20213;-91
2021/08/06 00:22:09;;;;;;;1.55;1.00;;;31.40;99.90;;;;;;5027686;28;20233;-91
2021/08/06 00:24:44;;;;;;;1.92;0.90;;;31.10;99.90;;;;;;5032428;28;20205;-91
2021/08/06 00:32:45;;;;;;;3.13;0.80;;;30.90;99.90;;;;;;5059445;23;20251;-92
2021/08/06 00:35:17;;;;;;;3.95;1.00;;;30.70;99.90;;;;;;5052392;28;20208;-93
2021/08/06 00:37:49;;;;;;;4.35;1.10;;;30.70;99.90;;;;;;5056554;28;20378;-91
2021/08/06 00:40:36;;;;;;;1.35;1.10;;;30.70;99.90;;;;;;5052839;28;20205;-92
2021/08/06 00:46:01;;;;;;;2.33;0.90;;;30.80;99.90;;;;;;5142737;23;20232;-91
2021/08/06 00:48:45;;;;;;;1.35;0.90;;;31.40;99.80;;;;;;5057472;28;20185;-91
2021/08/06 00:53:52;;;;;;;2.17;0.80;;;31.10;99.20;;;;;;5356236;23;20243;-92
2021/08/06 00:56:27;;;;;;;1.42;0.82;;;31.40;99.90;;;;;;5339064;23;20227;-92
2021/08/06 00:58:58;;;;;;;1.98;0.90;;;30.70;98.70;;;;;;5075235;28;20237;-92
2021/08/06 01:01:32;;;;;;;1.80;0.88;;;30.90;99.20;;;;;;5063396;28;20232;-92
2021/08/06 01:04:09;;;;;;;0.98;0.80;;;30.40;99.20;;;;;;5065125;28;20192;-92
2021/08/06 01:06:48;;;;;;;1.40;0.87;;;30.50;99.60;;;;;;5072904;28;20222;-92
2021/08/06 01:09:40;;;;;;;2.25;0.70;;;30.90;99.30;;;;;;5071089;28;20248;-92
2021/08/06 01:12:20;;;;;;;1.33;1.00;;;30.60;99.90;;;;;;5075890;28;20192;-92
2021/08/06 01:22:43;;;;;;;1.40;0.80;;;31.30;99.00;;;;;;5030187;28;20239;-91
2021/08/06 01:25:40;;;;;;;1.38;1.25;;;31.70;99.10;;;;;;5031257;28;20260;-91
2021/08/06 01:28:15;;;;;;;1.58;1.00;;;32.00;98.40;;;;;;5030142;28;20224;-92
2021/08/06 01:33:46;;;;;;;1.02;0.90;;;31.80;97.80;;;;;;5033629;28;20205;-91
2021/08/06 01:36:21;;;;;;;2.55;0.98;;;31.60;98.00;;;;;;5031485;28;20205;-92
2021/08/06 01:38:56;;;;;;;1.30;1.13;;;31.70;98.10;;;;;;5026437;28;20213;-91
2021/08/06 01:41:38;;;;;;;2.33;0.88;;;31.50;98.00;;;;;;5017666;28;20280;-91
2021/08/06 01:44:15;;;;;;;0.80;0.80;;;30.60;98.00;;;;;;5018306;28;20631;-91
2021/08/06 01:46:52;;;;;;;1.45;0.90;;;31.40;98.00;;;;;;5017654;28;20210;-90
2021/08/06 01:49:29;;;;;;;1.20;0.80;;;31.30;97.50;;;;;;5017386;28;20858;-91
2021/08/06 01:52:08;;;;;;;2.47;0.70;;;30.00;97.10;;;;;;5019249;28;20209;-91
2021/08/06 01:54:47;;;;;;;0.83;0.80;;;29.50;98.50;;;;;;5032917;28;20213;-91
2021/08/06 01:57:21;;;;;;;3.00;0.90;;;29.90;98.30;;;;;;5032750;28;20236;-91
2021/08/06 01:59:52;;;;;;;1.23;0.93;;;30.40;99.90;;;;;;5022327;28;20281;-91
2021/08/06 02:02:24;;;;;;;2.33;1.30;;;30.20;99.90;;;;;;5017829;28;20261;-91
2021/08/06 02:04:58;;;;;;;4.97;1.00;;;30.30;99.90;;;;;;5027618;28;20208;-91
2021/08/06 02:07:30;;;;;;;3.57;1.00;;;29.40;99.90;;;;;;5017489;28;20236;-91
2021/08/06 02:10:02;;;;;;;2.20;0.90;;;28.80;99.90;;;;;;5016862;28;20319;-92
2021/08/06 02:12:35;;;;;;;2.73;0.90;;;28.70;99.90;;;;;;5022530;28;20205;-91
2021/08/06 02:15:09;;;;;;;1.53;0.90;;;28.50;99.90;;;;;;5029556;28;20221;-92
2021/08/06 02:17:44;;;;;;;0.93;0.90;;;28.00;99.90;;;;;;5031116;28;20200;-92
2021/08/06 02:20:19;;;;;;;2.07;0.80;;;27.70;99.90;;;;;;5027967;28;20228;-92
2021/08/06 02:22:52;;;;;;;1.03;0.60;;;27.60;99.90;;;;;;5030885;28;20236;-92
2021/08/06 02:25:27;;;;;;;1.90;0.60;;;27.40;99.90;;;;;;5026173;28;20212;-91
2021/08/06 02:28:15;;;;;;;2.20;0.30;;;27.30;99.90;;;;;;5023454;28;20217;-91
2021/08/06 02:30:48;;;;;;;1.27;0.77;;;27.10;99.90;;;;;;5017213;28;20201;-91
2021/08/06 02:36:12;;;;;;;0.90;0.40;;;26.80;99.90;;;;;;5026407;28;20661;-91
2021/08/06 02:38:44;;;;;;;1.90;0.27;;;26.60;99.90;;;;;;5019576;28;20576;-91
2021/08/06 02:41:15;;;;;;;3.30;0.33;;;26.30;99.90;;;;;;5021931;28;20221;-88
2021/08/06 02:43:49;;;;;;;0.40;0.40;;;26.30;99.90;;;;;;5028641;28;20705;-91
2021/08/06 02:46:21;;;;;;;1.07;0.40;;;26.10;99.90;;;;;;5025053;28;20241;-92
2021/08/06 02:48:55;;;;;;;1.63;0.40;;;26.00;99.90;;;;;;5026849;28;20206;-91
2021/08/06 02:51:28;;;;;;;9.67;0.60;;;25.90;99.90;;;;;;5028159;28;20205;-91
2021/08/06 02:54:02;;;;;;;2.33;0.40;;;25.30;99.90;;;;;;5027235;28;20213;-91
2021/08/06 03:01:57;;;;;;;3.23;0.53;;;24.70;99.90;;;;;;5028716;28;20210;-92
2021/08/06 03:04:30;;;;;;;1.17;0.77;;;24.30;99.90;;;;;;5030630;28;20209;-91
2021/08/06 03:07:02;;;;;;;0.70;0.70;;;24.20;99.90;;;;;;5036062;28;20216;-90
2021/08/06 03:09:35;;;;;;;3.77;0.77;;;24.10;99.90;;;;;;5036520;28;20214;-90
2021/08/06 03:12:07;;;;;;;2.83;0.90;;;24.00;99.90;;;;;;5035190;28;20224;-91
2021/08/06 03:14:40;;;;;;;4.63;0.90;;;24.00;99.90;;;;;;5030911;28;20228;-91
2021/08/06 03:17:13;;;;;;;3.33;0.70;;;24.00;99.90;;;;;;5031349;28;20218;-91
2021/08/06 03:19:46;;;;;;;3.00;0.77;;;23.80;99.90;;;;;;5034929;28;20204;-92
2021/08/06 03:22:18;;;;;;;2.70;0.83;;;23.70;99.90;;;;;;5035929;28;20193;-91
2021/08/06 03:24:50;;;;;;;1.40;0.70;;;23.40;99.90;;;;;;5032283;28;20282;-92
2021/08/06 03:27:21;;;;;;;2.30;0.87;;;23.20;99.90;;;;;;5026601;28;20260;-91
2021/08/06 03:29:53;;;;;;;0.80;0.60;;;23.00;99.90;;;;;;5033822;28;20206;-92
2021/08/06 03:32:28;;;;;;;3.13;0.60;;;22.90;99.90;;;;;;5032310;28;20206;-93
2021/08/06 03:35:00;;;;;;;0.63;0.43;;;22.90;99.90;;;;;;5033889;28;20217;-93
2021/08/06 03:40:04;;;;;;;4.33;0.90;;;22.80;99.90;;;;;;5057895;28;20205;-92
2021/08/06 03:42:36;;;;;;;0.77;0.60;;;22.70;99.90;;;;;;5059227;28;20220;-92
2021/08/06 03:45:08;;;;;;;1.13;0.70;;;22.50;99.90;;;;;;5054118;28;20204;-92
2021/08/06 03:47:44;;;;;;;3.40;0.70;;;22.30;99.90;;;;;;5046152;28;20196;-89
2021/08/06 03:50:16;;;;;;;1.00;0.60;;;22.00;99.90;;;;;;5053479;28;20280;-90
2021/08/06 03:52:47;;;;;;;2.23;0.60;;;21.90;99.90;;;;;;5054900;28;20213;-91
2021/08/06 03:55:18;;;;;;;3.47;0.77;;;21.90;99.90;;;;;;5042750;28;20225;-91
2021/08/06 03:57:54;;;;;;;1.77;0.60;;;21.70;99.90;;;;;;5048684;28;20273;-91
2021/08/06 04:00:27;;;;;;;1.20;0.70;;;21.60;99.90;;;;;;5051880;28;20269;-91
2021/08/06 04:03:02;;;;;;;2.07;0.50;;;21.50;99.90;;;;;;5042682;28;20236;-92
2021/08/06 04:05:34;;;;;;;0.67;0.60;;;21.40;99.90;;;;;;5041129;28;20213;-91
2021/08/06 04:08:08;;;;;;;2.47;0.50;;;21.40;99.90;;;;;;5040590;28;20232;-92
2021/08/06 04:10:39;;;;;;;0.50;0.50;;;21.30;99.90;;;;;;5037030;28;20236;-91
2021/08/06 04:13:10;;;;;;;0.73;0.50;;;21.30;99.90;;;;;;5038746;28;20634;-91
2021/08/06 04:15:42;;;;;;;1.60;0.83;;;21.10;99.90;;;;;;5037422;28;20231;-92
2021/08/06 04:18:15;;;;;;;3.67;0.67;;;20.80;99.90;;;;;;5039406;28;20209;-91
2021/08/06 04:20:46;;;;;;;0.77;0.60;;;20.70;99.90;;;;;;5044664;28;20233;-92
2021/08/06 04:23:18;;;;;;;1.80;0.70;;;20.70;99.90;;;;;;5037610;28;20252;-91
2021/08/06 04:25:50;;;;;;;1.30;0.50;;;20.50;99.90;;;;;;5039177;28;20233;-91
2021/08/06 04:28:24;;;;;;;0.70;0.40;;;20.30;99.90;;;;;;5044544;28;20665;-91
2021/08/06 04:31:04;;;;;;;1.57;0.70;;;20.30;99.90;;;;;;5025503;28;20216;-92
2021/08/06 04:33:38;;;;;;;2.00;0.70;;;20.40;99.90;;;;;;5044329;28;20216;-94
2021/08/06 04:36:11;;;;;;;1.10;0.43;;;20.20;99.90;;;;;;5048430;28;20201;-92
2021/08/06 04:38:42;;;;;;;0.70;0.60;;;20.10;99.90;;;;;;5025151;28;20236;-90
2021/08/06 04:41:14;;;;;;;0.70;0.70;;;20.10;99.90;;;;;;5023836;28;20177;-90
2021/08/06 04:43:46;;;;;;;2.00;0.40;;;19.90;99.90;;;;;;5030174;28;20214;-90
2021/08/06 04:46:21;;;;;;;0.50;0.30;;;19.90;99.90;;;;;;5030576;28;20351;-91
2021/08/06 04:48:56;;;;;;;1.50;0.60;;;19.80;99.90;;;;;;5029188;28;20205;-91
2021/08/06 04:51:28;;;;;;;0.60;0.50;;;19.90;99.90;;;;;;5028612;28;20201;-91
2021/08/06 04:54:00;;;;;;;1.77;0.40;;;19.90;99.90;;;;;;5022849;28;20225;-91
2021/08/06 04:56:34;;;;;;;0.43;0.43;;;19.80;99.90;;;;;;5038864;28;20248;-90
2021/08/06 04:59:05;;;;;;;0.63;0.40;;;19.90;99.90;;;;;;5047199;28;20201;-90
2021/08/06 05:01:36;;;;;;;2.17;0.40;;;19.90;99.90;;;;;;5023235;28;20216;-91
2021/08/06 05:04:10;;;;;;;0.47;0.30;;;20.00;99.90;;;;;;5029772;28;20233;-90
2021/08/06 05:06:43;;;;;;;0.70;0.50;;;20.10;99.90;;;;;;5031401;28;20232;-90
2021/08/06 05:09:16;;;;;;;0.70;0.40;;;20.00;99.90;;;;;;5026895;28;20229;-90
2021/08/06 05:11:47;;;;;;;0.60;0.43;;;20.00;99.90;;;;;;5044927;28;20224;-90
2021/08/06 05:14:19;;;;;;;0.70;0.40;;;20.10;99.90;;;;;;5034682;28;20252;-91
2021/08/06 05:16:50;;;;;;;0.70;0.40;;;20.10;99.90;;;;;;5018926;28;20198;-90
2021/08/06 05:19:23;;;;;;;0.83;0.37;;;20.10;99.90;;;;;;5019141;28;20269;-91
2021/08/06 05:21:54;;;;;;;1.40;0.30;;;20.20;99.90;;;;;;5017091;28;20233;-91
2021/08/06 05:24:25;;;;;;;1.50;0.33;;;20.30;99.90;;;;;;5022264;28;20767;-91
2021/08/06 05:26:57;;;;;;;0.30;0.30;;;20.30;99.90;;;;;;5018640;28;20213;-91
2021/08/06 05:29:29;;;;;;;0.50;0.40;;;20.30;99.90;;;;;;5031322;28;20204;-90
2021/08/06 05:32:02;;;;;;;0.50;0.50;;;20.20;99.90;;;;;;5042526;28;20228;-89
2021/08/06 05:34:35;;;;;;;1.60;0.40;;;20.30;99.90;;;;;;5039383;28;20645;-91
2021/08/06 05:37:07;;;;;;;0.40;0.40;;;20.30;99.90;;;;;;5039878;28;20268;-90
2021/08/06 05:39:39;;;;;;;0.63;0.50;;;20.20;99.90;;;;;;5039314;28;20217;-91
2021/08/06 05:42:10;;;;;;;1.50;0.63;;;20.20;99.90;;;;;;5046273;28;20216;-91
2021/08/06 05:44:41;;;;;;;0.50;0.50;;;19.90;99.90;;;;;;5045472;28;20228;-90
2021/08/06 05:47:13;;;;;;;0.33;0.30;;;19.90;99.90;;;;;;5046215;28;20236;-90
2021/08/06 05:49:46;;;;;;;0.90;0.40;;;19.90;99.90;;;;;;5025670;28;20232;-90
2021/08/06 05:52:18;;;;;;;0.77;0.50;;;19.70;99.90;;;;;;5051184;28;20280;-90
2021/08/06 05:54:49;;;;;;;0.57;0.50;;;19.60;99.90;;;;;;5050009;28;20242;-90
2021/08/06 05:57:20;;;;;;;0.90;0.50;;;19.50;99.90;;;;;;5050862;28;20211;-89
2021/08/06 05:59:52;;;;;;;0.40;0.40;;;19.40;99.90;;;;;;5051325;28;20206;-90
2021/08/06 06:02:23;;;;;;;2.40;0.40;;;19.30;99.90;;;;;;5033808;28;20232;-90
2021/08/06 06:04:57;;;;;;;0.57;0.43;;;19.20;99.90;;;;;;5034866;28;20209;-90
2021/08/06 06:07:29;;;;;;;1.13;0.60;;;19.40;99.90;;;;;;5032442;28;20228;-90
2021/08/06 06:10:00;;;;;;;2.00;0.53;;;19.30;99.90;;;;;;5036649;28;20193;-90
2021/08/06 06:12:31;;;;;;;1.33;0.50;;;19.30;99.90;;;;;;5041333;28;20196;-91
2021/08/06 06:15:03;;;;;;;0.97;0.50;;;19.30;99.90;;;;;;5040264;28;20204;-91
2021/08/06 06:17:36;;;;;;;0.50;0.40;;;19.20;99.90;;;;;;5031253;28;20233;-90
2021/08/06 06:20:13;;;;;;;0.80;0.30;;;19.00;99.90;;;;;;5063625;23;20237;-91
2021/08/06 06:22:45;;;;;;;1.83;0.60;;;18.90;99.90;;;;;;5060789;28;20262;-90
2021/08/06 06:25:18;;;;;;;0.30;0.30;;;18.80;99.90;;;;;;5056972;28;20227;-90
2021/08/06 06:27:54;;;;;;;1.93;0.50;;;18.90;99.90;;;;;;5057356;28;20212;-90
2021/08/06 06:30:30;;;;;;;0.23;0.20;;;19.00;99.90;;;;;;5055453;28;20208;-89
2021/08/06 06:33:03;;;;;;;0.60;0.30;;;18.90;99.90;;;;;;5079353;23;20326;-90
2021/08/06 06:35:36;;;;;;;0.33;0.20;;;19.00;99.90;;;;;;5037233;28;20216;-90
2021/08/06 06:38:08;;;;;;;0.20;0.20;;;18.90;99.90;;;;;;5039712;28;20209;-90
2021/08/06 06:40:42;;;;;;;0.77;0.30;;;19.00;99.90;;;;;;5043549;28;20266;-90
2021/08/06 06:43:16;;;;;;;0.27;0.23;;;19.00;99.90;;;;;;5055354;28;20255;-90
2021/08/06 06:45:48;;;;;;;1.87;0.40;;;19.00;99.90;;;;;;5060711;28;20329;-89
2021/08/06 06:48:24;;;;;;;0.30;0.30;;;18.90;99.90;;;;;;5059157;28;20204;-89
2021/08/06 06:50:57;;;;;;;0.50;0.40;;;18.90;99.90;;;;;;5059364;28;20298;-89
2021/08/06 06:53:28;;;;;;;0.60;0.30;;;18.80;99.90;;;;;;5059986;28;20311;-90
2021/08/06 06:56:00;;;;;;;1.60;0.43;;;18.80;99.90;;;;;;5042301;28;20692;-90
2021/08/06 06:58:32;;;;;;;1.23;0.40;;;18.80;99.90;;;;;;5047631;28;20216;-89
2021/08/06 07:01:04;;;;;;;0.77;0.33;;;18.80;99.90;;;;;;5047802;28;20228;-89
2021/08/06 07:03:36;;;;;;;0.73;0.40;;;18.80;99.90;;;;;;5052914;28;20197;-90
2021/08/06 07:06:11;;;;;;;0.60;0.37;;;18.80;99.90;;;;;;5051077;28;20221;-89
2021/08/06 07:08:43;;;;;;;0.70;0.40;;;18.60;99.90;;;;;;5052265;28;20266;-88
2021/08/06 07:13:59;;;;;;;1.10;0.50;;;18.70;99.90;;;;;;5021258;28;20209;-90
2021/08/06 07:16:30;;;;;;;0.80;0.40;;;18.80;99.90;;;;;;5018985;28;20248;-90
2021/08/06 07:19:01;;;;;;;0.63;0.60;;;18.80;99.90;;;;;;5020139;28;20205;-90
2021/08/06 07:21:35;;;;;;;1.37;0.60;;;18.90;99.90;;;;;;5019559;28;20683;-90
2021/08/06 07:24:06;;;;;;;0.50;0.30;;;19.00;99.90;;;;;;5020277;28;20292;-90
2021/08/06 07:26:37;;;;;;;0.47;0.40;;;19.00;99.90;;;;;;5020115;28;20233;-89
2021/08/06 07:29:12;;;;;;;2.80;0.60;;;18.80;99.90;;;;;;5032159;28;20197;-89
2021/08/06 07:31:44;;;;;;;0.50;0.50;;;18.70;99.90;;;;;;5023373;28;20289;-91
2021/08/06 07:34:15;;;;;;;1.93;0.97;;;18.70;99.90;;;;;;5020919;28;20206;-91
2021/08/06 07:36:48;;;;;;;0.87;0.40;;;18.80;99.90;;;;;;5018118;28;20241;-91
2021/08/06 07:39:20;;;;;;;1.57;0.53;;;18.80;99.90;;;;;;5026032;28;20256;-90
2021/08/06 07:41:52;;;;;;;0.40;0.40;;;18.70;99.90;;;;;;5033669;28;20233;-90
2021/08/06 07:44:25;;;;;;;2.33;0.40;;;18.60;99.90;;;;;;5026741;28;20210;-90
2021/08/06 07:46:56;;;;;;;0.97;0.53;;;18.60;99.90;;;;;;5019041;28;20230;-90
2021/08/06 07:49:27;;;;;;;1.00;0.60;;;18.70;99.90;;;;;;5019507;28;20288;-90
2021/08/06 07:52:00;;;;;;;2.40;0.50;;;18.70;99.90;;;;;;5018493;28;20686;-90
2021/08/06 07:54:31;;;;;;;0.40;0.40;;;18.70;99.90;;;;;;5017888;28;20234;-89
2021/08/06 07:57:02;;;;;;;0.70;0.50;;;18.70;99.90;;;;;;5019642;28;20658;-90
2021/08/06 07:59:34;;;;;;;0.90;0.40;;;18.80;99.90;;;;;;5020138;28;20365;-90
2021/08/06 08:07:43;;;;;;;1.53;0.63;;;18.50;99.90;;;;;;5014784;28;20252;-88
2021/08/06 08:10:16;;;;;;;1.80;0.70;;;18.50;99.90;;;;;;5008371;28;20210;-89
2021/08/06 08:12:50;;;;;;;1.00;0.40;;;18.60;99.90;;;;;;4999422;28;20281;-90
2021/08/06 08:15:21;;;;;;;0.67;0.50;;;18.70;99.90;;;;;;4999656;28;20655;-90
2021/08/06 08:17:53;;;;;;;1.23;0.47;;;18.80;99.90;;;;;;5000881;28;20290;-90
2021/08/06 08:20:25;;;;;;;0.57;0.30;;;18.70;99.90;;;;;;4999006;28;20260;-90
2021/08/06 08:23:01;;;;;;;0.70;0.30;;;18.70;99.90;;;;;;5008446;28;20194;-89
2021/08/06 08:25:33;;;;;;;0.60;0.23;;;18.80;99.90;;;;;;5038515;28;20297;-89
2021/08/06 08:28:05;;;;;;;0.77;0.43;;;18.80;99.90;;;;;;5037197;28;20240;-89
2021/08/06 08:30:37;;;;;;;0.77;0.47;;;18.80;99.90;;;;;;5021414;28;20221;-90
2021/08/06 08:33:08;;;;;;;0.30;0.30;;;18.80;99.90;;;;;;5023772;28;20217;-89
2021/08/06 08:35:39;;;;;;;0.20;0.20;;;18.80;99.90;;;;;;5029765;28;20236;-89
2021/08/06 08:38:14;;;;;;;0.43;0.20;;;18.70;99.90;;;;;;5022062;28;20209;-90
2021/08/06 08:40:47;;;;;;;1.00;0.20;;;18.60;99.90;;;;;;5019737;28;20615;-90
2021/08/06 08:43:19;;;;;;;0.20;0.20;;;18.70;99.90;;;;;;5021158;28;20206;-88
2021/08/06 08:45:51;;;;;;;0.30;0.10;;;18.60;99.90;;;;;;5018588;28;20226;-89
2021/08/06 08:48:22;;;;;;;0.77;0.20;;;18.60;99.90;;;;;;5019233;28;20752;-89
2021/08/06 08:50:56;;;;;;;0.47;0.20;;;18.60;99.90;;;;;;5017642;28;20341;-90
2021/08/06 08:53:29;;;;;;;0.27;0.20;;;18.50;99.90;;;;;;4998694;28;20214;-89
2021/08/06 08:56:01;;;;;;;0.30;0.30;;;18.60;99.90;;;;;;4998709;28;20221;-89
2021/08/06 08:58:32;;;;;;;0.20;0.20;;;18.60;99.90;;;;;;4998803;28;20629;-89
2021/08/06 09:01:04;;;;;;;1.87;0.40;;;18.60;99.90;;;;;;4995974;28;20251;-89
2021/08/06 09:03:43;;;;;;;1.03;0.20;;;18.60;99.90;;;;;;4996672;28;20218;-89
2021/08/06 09:06:14;;;;;;;1.43;0.30;;;18.40;99.90;;;;;;4998359;28;20329;-89
2021/08/06 09:08:49;;;;;;;0.10;0.10;;;18.40;99.90;;;;;;4997630;28;20276;-89
2021/08/06 09:11:31;;;;;;;0.30;0.20;;;18.40;99.90;;;;;;4999766;28;20244;-90
2021/08/06 09:14:21;;;;;;;0.10;0.10;;;18.30;99.90;;;;;;4998608;28;20248;-89
2021/08/06 09:17:01;;;;;;;0.10;0.10;;;18.40;99.90;;;;;;4999085;28;20289;-90
2021/08/06 09:19:34;;;;;;;0.10;0.10;;;18.30;99.90;;;;;;5000424;28;20233;-90
2021/08/06 09:22:17;;;;;;;0.40;0.17;;;18.40;99.90;;;;;;4999484;28;20226;-90
2021/08/06 09:25:13;;;;;;;0.63;0.20;;;18.30;99.90;;;;;;4998641;28;20210;-90
2021/08/06 09:27:48;;;;;;;0.10;0.10;;;18.20;99.90;;;;;;4993860;28;20261;-89
2021/08/06 09:30:35;;;;;;;0.10;0.10;;;18.20;99.90;;;;;;5000659;28;20214;-90
2021/08/06 09:33:08;;;;;;;0.10;0.10;;;18.10;99.90;;;;;;5002672;28;20269;-90
2021/08/06 09:35:40;;;;;;;1.23;0.20;;;18.10;99.90;;;;;;5004652;28;20241;-90
2021/08/06 09:38:21;;;;;;;0.10;0.10;;;18.00;99.90;;;;;;5016189;28;20225;-89
2021/08/06 09:40:54;;;;;;;0.10;0.10;;;18.00;99.90;;;;;;5015383;28;20213;-91
2021/08/06 09:43:26;;;;;;;0.57;0.10;;;18.00;99.90;;;;;;5015354;28;20208;-90
2021/08/06 09:45:57;;;;;;;0.30;0.20;;;18.10;99.90;;;;;;5017195;28;20640;-90
2021/08/06 09:48:30;;;;;;;0.80;0.20;;;18.20;99.90;;;;;;5016593;28;20202;-90
2021/08/06 09:51:01;;;;;;;0.10;0.10;;;18.30;99.90;;;;;;5015867;28;20206;-89
2021/08/06 09:53:38;;;;;;;0.37;0.17;;;18.20;99.90;;;;;;5017150;28;20210;-91
2021/08/06 09:56:20;;;;;;;0.10;0.10;;;18.20;99.90;;;;;;5017029;28;20217;-90
2021/08/06 09:59:00;;;;;;;0.20;0.20;;;18.20;99.90;;;;;;5009854;28;20260;-89
2021/08/06 10:01:36;;;;;;;1.70;0.40;;;18.10;99.90;;;;;;5004841;28;20572;-89
2021/08/06 10:04:16;;;;;;;0.83;0.30;;;18.10;99.90;;;;;;4988016;28;20282;-90
2021/08/06 10:06:59;;;;;;;0.40;0.20;;;18.20;99.90;;;;;;4982004;28;20250;-90
2021/08/06 10:09:31;;;;;;;0.90;0.37;;;18.20;99.90;;;;;;4980735;28;20260;-91
2021/08/06 10:12:05;;;;;;;12.53;3.07;;;18.10;99.90;;;;;;4981606;28;20215;-90
2021/08/06 10:14:37;;;;;;;5.80;1.17;;;18.20;99.90;;;;;;4981542;28;20217;-91
2021/08/06 10:17:09;;;;;;;3.20;0.93;;;18.20;99.90;;;;;;4985741;28;20270;-90
2021/08/06 10:19:41;;;;;;;0.93;0.20;;;18.20;99.90;;;;;;4981361;28;20199;-91
2021/08/06 10:22:12;;;;;;;0.50;0.40;;;18.10;99.90;;;;;;4979452;28;20305;-89
2021/08/06 10:24:46;;;;;;;1.43;0.27;;;18.20;99.90;;;;;;4980530;28;20287;-91
2021/08/06 10:27:22;;;;;;;0.77;0.43;;;18.10;99.90;;;;;;4979661;28;20254;-90
2021/08/06 10:29:58;;;;;;;0.50;0.40;;;18.10;99.90;;;;;;4980823;28;20214;-91
2021/08/06 10:32:30;;;;;;;1.03;0.60;;;18.00;99.90;;;;;;4980208;28;20318;-89
2021/08/06 10:35:21;;;;;;;2.63;0.77;;;18.00;99.90;;;;;;4980260;28;20294;-90
2021/08/06 10:38:05;;;;;;;0.73;0.60;;;18.00;99.90;;;;;;4979151;28;20243;-90
2021/08/06 10:44:04;;;;;;;0.57;0.50;;;18.10;99.90;;;;;;5011864;28;20210;-90
2021/08/06 10:47:01;;;;;;;0.53;0.40;;;18.10;99.90;;;;;;5016186;28;20218;-90
2021/08/06 10:49:33;;;;;;;0.63;0.40;;;18.00;99.90;;;;;;5013439;28;20683;-91
2021/08/06 10:52:17;;;;;;;0.80;0.40;;;18.00;99.90;;;;;;5014091;28;20218;-90
2021/08/06 10:54:50;;;;;;;0.80;0.50;;;17.90;99.90;;;;;;4999488;28;20270;-90
2021/08/06 10:57:30;;;;;;;0.97;0.50;;;17.90;99.90;;;;;;4998662;28;20239;-90
2021/08/06 11:00:04;;;;;;;1.70;0.70;;;18.00;99.90;;;;;;4998744;28;20210;-90
2021/08/06 11:02:47;;;;;;;0.60;0.50;;;17.90;99.90;;;;;;4998667;28;20237;-89
2021/08/06 11:05:42;;;;;;;1.03;0.60;;;17.90;99.90;;;;;;4999160;28;20218;-90
2021/08/06 11:08:56;;;;;;;1.17;0.50;;;17.90;99.90;;;;;;4985819;28;20277;-90
2021/08/06 11:14:19;;;;;;;1.10;0.60;;;17.90;99.90;;;;;;4979839;28;20215;-89
2021/08/06 11:17:15;;;;;;;0.63;0.63;;;17.90;99.90;;;;;;4981883;28;20203;-89
2021/08/06 11:19:49;;;;;;;1.20;0.67;;;17.90;99.90;;;;;;4982003;28;20195;-89
2021/08/06 11:22:27;;;;;;;0.83;0.70;;;17.90;99.90;;;;;;4982736;28;20191;-89
2021/08/06 11:25:01;;;;;;;2.47;0.60;;;17.90;99.90;;;;;;4984724;28;20274;-89
2021/08/06 11:27:38;;;;;;;0.60;0.60;;;18.00;99.90;;;;;;5009923;28;20277;-90
2021/08/06 11:30:11;;;;;;;0.60;0.60;;;18.00;99.90;;;;;;4999293;28;20207;-91
2021/08/06 11:32:56;;;;;;;0.60;0.60;;;17.90;99.90;;;;;;4998563;28;20226;-90
2021/08/06 11:35:30;;;;;;;1.33;0.70;;;18.00;99.90;;;;;;5005523;28;20206;-89
2021/08/06 11:38:03;;;;;;;0.80;0.80;;;17.90;99.90;;;;;;4987049;28;20265;-89
2021/08/06 11:40:35;;;;;;;1.03;0.67;;;18.00;99.90;;;;;;4986995;28;20252;-89
2021/08/06 11:43:13;;;;;;;0.80;0.80;;;18.00;99.90;;;;;;4982677;28;20207;-89
2021/08/06 11:45:46;;;;;;;0.73;0.70;;;18.00;99.90;;;;;;4996122;28;20730;-88
2021/08/06 11:48:19;;;;;;;1.83;0.90;;;18.00;99.90;;;;;;4983096;28;20230;-89
2021/08/06 11:50:52;;;;;;;2.77;0.93;;;18.00;99.90;;;;;;4980271;28;20223;-89
2021/08/06 11:53:25;;;;;;;1.10;0.87;;;17.90;99.90;;;;;;4984318;28;20207;-90
2021/08/06 11:55:58;;;;;;;1.07;0.80;;;18.00;99.90;;;;;;4982297;28;20242;-89
2021/08/06 11:58:34;;;;;;;0.80;0.80;;;18.00;99.90;;;;;;5009844;28;20206;-90
2021/08/06 12:01:06;;;;;;;1.30;0.90;;;18.00;99.90;;;;;;4999478;28;20364;-90
2021/08/06 12:03:56;;;;;;;2.23;0.87;;;17.90;99.90;;;;;;5006970;28;20266;-90
2021/08/06 12:06:28;;;;;;;4.23;1.53;;;17.90;99.90;;;;;;4999353;28;20630;-90
2021/08/06 12:09:07;;;;;;;0.93;0.90;;;18.00;99.90;;;;;;5035052;28;20237;-89
2021/08/06 12:11:46;;;;;;;1.07;0.97;;;17.90;99.90;;;;;;5020415;28;20255;-89
2021/08/06 12:14:29;;;;;;;1.53;1.10;;;18.00;99.90;;;;;;5022383;28;20701;-89
2021/08/06 12:17:01;;;;;;;1.30;1.20;;;18.00;99.90;;;;;;5018076;28;20213;-90
2021/08/06 12:19:34;;;;;;;1.23;1.13;;;18.00;99.90;;;;;;5019431;28;20293;-90
2021/08/06 12:22:12;;;;;;;1.10;1.00;;;17.90;99.90;;;;;;5018472;28;20288;-90
2021/08/06 12:24:43;;;;;;;5.40;1.53;;;17.80;99.90;;;;;;5013203;28;20241;-90
2021/08/06 12:27:29;;;;;;;1.30;1.20;;;17.80;99.90;;;;;;4999096;28;20646;-89
2021/08/06 12:30:00;;;;;;;1.67;1.57;;;17.80;99.90;;;;;;4999351;28;20265;-89
2021/08/06 12:32:34;;;;;;;1.70;1.60;;;17.80;99.90;;;;;;5001116;28;20237;-90
2021/08/06 12:35:07;;;;;;;1.80;1.70;;;17.90;99.90;;;;;;4999473;28;20217;-89
2021/08/06 12:37:39;;;;;;;1.50;1.40;;;17.80;99.90;;;;;;4999507;28;20693;-89
2021/08/06 12:40:12;;;;;;;1.33;1.27;;;17.80;99.90;;;;;;4998887;28;20204;-90
2021/08/06 12:42:43;;;;;;;1.70;1.40;;;17.80;99.90;;;;;;5001561;28;20225;-89
2021/08/06 12:45:20;;;;;;;1.70;1.60;;;17.80;99.90;;;;;;5000216;28;20210;-89
2021/08/06 12:47:54;;;;;;;1.87;1.77;;;17.80;99.90;;;;;;4999626;28;20225;-89
2021/08/06 12:50:31;;;;;;;2.23;2.03;;;17.90;99.90;;;;;;4997828;28;20241;-89
2021/08/06 12:53:04;;;;;;;2.13;1.90;;;17.90;99.90;;;;;;4979308;28;20270;-89
2021/08/06 12:55:37;;;;;;;3.77;1.90;;;17.90;99.90;;;;;;4998335;28;20230;-89
2021/08/06 12:58:21;;;;;;;1.77;1.67;;;17.90;99.90;;;;;;4998572;28;20222;-89
2021/08/06 13:00:54;;;;;;;2.40;2.20;;;17.90;99.90;;;;;;5004923;28;20196;-89
2021/08/06 13:03:27;;;;;;;2.27;2.07;;;17.90;99.90;;;;;;4997188;28;20217;-89
2021/08/06 13:06:02;;;;;;;1.97;1.70;;;17.90;99.90;;;;;;4999003;28;20261;-89
2021/08/06 13:08:42;;;;;;;1.90;1.80;;;18.00;99.90;;;;;;4997641;28;20234;-89
2021/08/06 13:11:15;;;;;;;1.90;1.80;;;17.90;99.90;;;;;;5010662;28;20241;-89
2021/08/06 13:13:49;;;;;;;2.17;1.60;;;18.00;99.90;;;;;;5017608;28;20210;-89
2021/08/06 13:16:23;;;;;;;1.63;1.53;;;18.00;99.90;;;;;;5017842;28;20202;-89
2021/08/06 13:18:55;;;;;;;2.17;1.77;;;18.00;99.90;;;;;;5015327;28;20198;-89
2021/08/06 13:21:27;;;;;;;2.00;1.60;;;18.00;99.90;;;;;;5015247;28;20202;-90
2021/08/06 13:23:58;;;;;;;1.90;1.70;;;18.00;99.90;;;;;;5002462;28;20245;-90
2021/08/06 13:26:30;;;;;;;1.70;1.60;;;18.00;99.90;;;;;;4998439;28;20693;-90
2021/08/06 13:29:01;;;;;;;1.87;1.53;;;18.10;99.90;;;;;;4999853;28;20265;-90
2021/08/06 13:31:33;;;;;;;1.23;1.20;;;18.00;99.90;;;;;;4997402;28;20210;-90
2021/08/06 13:34:04;;;;;;;1.90;1.20;;;18.00;99.90;;;;;;4979488;28;20198;-90
2021/08/06 13:36:37;;;;;;;1.20;1.03;;;18.00;99.90;;;;;;4977375;28;20265;-90
2021/08/06 13:39:09;;;;;;;0.93;0.90;;;17.90;99.90;;;;;;4977988;28;20203;-90
2021/08/06 13:41:41;;;;;;;1.77;1.20;;;17.90;99.90;;;;;;4977985;28;20207;-89
2021/08/06 13:44:12;;;;;;;0.70;0.70;;;17.90;99.90;;;;;;4979985;28;20211;-90
2021/08/06 13:46:47;;;;;;;1.00;0.70;;;17.90;99.90;;;;;;4978161;28;20301;-90
2021/08/06 13:49:19;;;;;;;1.00;0.90;;;17.90;99.90;;;;;;4979502;28;20230;-89
2021/08/06 13:51:52;;;;;;;1.57;0.70;;;18.00;99.90;;;;;;4977819;28;20690;-89
2021/08/06 13:54:23;;;;;;;0.90;0.77;;;18.00;99.90;;;;;;4983696;28;20238;-90
2021/08/06 13:56:54;;;;;;;1.10;1.00;;;18.10;99.90;;;;;;4997198;28;20206;-90
2021/08/06 13:59:26;;;;;;;0.77;0.60;;;18.10;99.90;;;;;;4997825;28;20225;-89
2021/08/06 14:01:57;;;;;;;0.50;0.50;;;18.10;99.90;;;;;;4996404;28;20272;-89
2021/08/06 14:04:28;;;;;;;0.50;0.50;;;18.00;99.90;;;;;;4997349;28;20222;-89
2021/08/06 14:07:01;;;;;;;0.60;0.50;;;18.00;99.90;;;;;;4997559;28;20249;-89
2021/08/06 14:09:33;;;;;;;0.83;0.60;;;18.10;99.90;;;;;;4996628;28;20236;-90
2021/08/06 14:12:04;;;;;;;1.60;0.53;;;18.00;99.90;;;;;;4997885;28;20238;-88